Terminal Aerodrome Forecast
Issued by NWS Sterling, VA

Home | Current Version | Previous Version | Text Only | Print | Product List | Glossary On
Versions: 1 2 3 4 5 6 7 8 9 10 11 12
000
FTUS41 KLWX 190500
TAFCHO
TAF
KCHO 190535Z 1906/2006 VRB03KT P6SM BKN050
     FM190900 00000KT 5SM BR BKN015 BKN050
     FM191500 05004KT P6SM BKN025 BKN050
     FM192000 11004KT P6SM BKN025
     FM200200 00000KT P6SM BKN025=

USA.gov is the U.S. government's official web portal to all federal, state and local government web resources and services.